sensor_id;sensor_type;location;lat;lon;timestamp;temperature;humidity
13591;DHT22;6866;50.778;7.206;2023-11-21T00:01:51;10.10;99.90
13591;DHT22;6866;50.778;7.206;2023-11-21T00:04:17;10.20;99.90
13591;DHT22;6866;50.778;7.206;2023-11-21T00:06:42;10.10;99.90
13591;DHT22;6866;50.778;7.206;2023-11-21T00:09:08;10.20;99.90
13591;DHT22;6866;50.778;7.206;2023-11-21T00:11:35;10.20;99.90
13591;DHT22;6866;50.778;7.206;2023-11-21T00:14:00;10.20;99.90
13591;DHT22;6866;50.778;7.206;2023-11-21T00:16:26;10.20;99.90
13591;DHT22;6866;50.778;7.206;2023-11-21T00:18:51;10.20;99.90
13591;DHT22;6866;50.778;7.206;2023-11-21T00:21:17;10.20;99.90
13591;DHT22;6866;50.778;7.206;2023-11-21T00:23:42;10.10;99.90
13591;DHT22;6866;50.778;7.206;2023-11-21T00:26:08;10.10;99.90
13591;DHT22;6866;50.778;7.206;2023-11-21T00:28:33;10.20;99.90
13591;DHT22;6866;50.778;7.206;2023-11-21T00:30:59;10.20;99.90
13591;DHT22;6866;50.778;7.206;2023-11-21T00:33:24;10.20;99.90
13591;DHT22;6866;50.778;7.206;2023-11-21T00:35:51;10.20;99.90
13591;DHT22;6866;50.778;7.206;2023-11-21T00:38:16;10.30;99.90
13591;DHT22;6866;50.778;7.206;2023-11-21T00:40:45;10.30;99.90
13591;DHT22;6866;50.778;7.206;2023-11-21T00:43:10;10.30;99.90
13591;DHT22;6866;50.778;7.206;2023-11-21T00:45:36;10.30;99.90
13591;DHT22;6866;50.778;7.206;2023-11-21T00:48:02;10.20;99.90
13591;DHT22;6866;50.778;7.206;2023-11-21T00:50:30;10.20;99.90
13591;DHT22;6866;50.778;7.206;2023-11-21T00:52:55;10.20;99.90
13591;DHT22;6866;50.778;7.206;2023-11-21T00:55:21;10.20;99.90
13591;DHT22;6866;50.778;7.206;2023-11-21T00:57:47;10.20;99.90
13591;DHT22;6866;50.778;7.206;2023-11-21T01:00:13;10.10;99.90
13591;DHT22;6866;50.778;7.206;2023-11-21T01:02:45;10.10;99.90
13591;DHT22;6866;50.778;7.206;2023-11-21T01:05:11;10.10;99.90
13591;DHT22;6866;50.778;7.206;2023-11-21T01:07:36;10.10;99.90
13591;DHT22;6866;50.778;7.206;2023-11-21T01:10:03;10.10;99.90
13591;DHT22;6866;50.778;7.206;2023-11-21T01:12:31;10.10;99.90
13591;DHT22;6866;50.778;7.206;2023-11-21T01:14:56;10.10;99.90
13591;DHT22;6866;50.778;7.206;2023-11-21T01:17:25;10.10;99.90
13591;DHT22;6866;50.778;7.206;2023-11-21T01:19:51;10.10;99.90
13591;DHT22;6866;50.778;7.206;2023-11-21T01:22:16;10.10;99.90
13591;DHT22;6866;50.778;7.206;2023-11-21T01:24:43;10.10;99.90
13591;DHT22;6866;50.778;7.206;2023-11-21T01:27:09;10.10;99.90
13591;DHT22;6866;50.778;7.206;2023-11-21T01:29:34;10.10;99.90
13591;DHT22;6866;50.778;7.206;2023-11-21T01:32:02;10.10;99.90
13591;DHT22;6866;50.778;7.206;2023-11-21T01:34:27;10.10;99.90
13591;DHT22;6866;50.778;7.206;2023-11-21T01:36:53;10.10;99.90
13591;DHT22;6866;50.778;7.206;2023-11-21T01:39:19;10.10;99.90
13591;DHT22;6866;50.778;7.206;2023-11-21T01:41:49;10.10;99.90
13591;DHT22;6866;50.778;7.206;2023-11-21T01:44:15;10.00;99.90
13591;DHT22;6866;50.778;7.206;2023-11-21T01:46:42;10.00;99.90
13591;DHT22;6866;50.778;7.206;2023-11-21T01:49:09;10.10;99.90
13591;DHT22;6866;50.778;7.206;2023-11-21T01:51:36;10.10;99.90
13591;DHT22;6866;50.778;7.206;2023-11-21T01:54:02;10.10;99.90
13591;DHT22;6866;50.778;7.206;2023-11-21T01:56:30;10.00;99.90
13591;DHT22;6866;50.778;7.206;2023-11-21T01:58:57;10.10;99.90
13591;DHT22;6866;50.778;7.206;2023-11-21T02:03:58;10.10;99.90
13591;DHT22;6866;50.778;7.206;2023-11-21T02:06:23;10.10;99.90
13591;DHT22;6866;50.778;7.206;2023-11-21T02:08:49;10.10;99.90
13591;DHT22;6866;50.778;7.206;2023-11-21T02:11:15;10.20;99.90
13591;DHT22;6866;50.778;7.206;2023-11-21T02:13:41;10.10;99.90
13591;DHT22;6866;50.778;7.206;2023-11-21T02:16:11;10.00;99.90
13591;DHT22;6866;50.778;7.206;2023-11-21T02:18:38;10.00;99.90
13591;DHT22;6866;50.778;7.206;2023-11-21T02:21:04;10.00;99.90
13591;DHT22;6866;50.778;7.206;2023-11-21T02:23:30;10.10;99.90
13591;DHT22;6866;50.778;7.206;2023-11-21T02:25:56;10.10;99.90
13591;DHT22;6866;50.778;7.206;2023-11-21T02:28:21;10.10;99.90
13591;DHT22;6866;50.778;7.206;2023-11-21T02:30:51;10.10;99.90
13591;DHT22;6866;50.778;7.206;2023-11-21T02:33:21;10.10;99.90
13591;DHT22;6866;50.778;7.206;2023-11-21T02:35:47;10.10;99.90
13591;DHT22;6866;50.778;7.206;2023-11-21T02:38:12;10.10;99.90
13591;DHT22;6866;50.778;7.206;2023-11-21T02:40:39;10.10;99.90
13591;DHT22;6866;50.778;7.206;2023-11-21T02:43:04;10.00;99.90
13591;DHT22;6866;50.778;7.206;2023-11-21T02:45:31;10.00;99.90
13591;DHT22;6866;50.778;7.206;2023-11-21T02:47:57;10.00;99.90
13591;DHT22;6866;50.778;7.206;2023-11-21T02:50:23;9.90;99.90
13591;DHT22;6866;50.778;7.206;2023-11-21T02:52:48;9.80;99.90
13591;DHT22;6866;50.778;7.206;2023-11-21T02:55:14;9.80;99.90
13591;DHT22;6866;50.778;7.206;2023-11-21T02:57:40;9.90;99.90
13591;DHT22;6866;50.778;7.206;2023-11-21T03:00:06;10.00;99.90
13591;DHT22;6866;50.778;7.206;2023-11-21T03:02:40;10.00;99.90
13591;DHT22;6866;50.778;7.206;2023-11-21T03:05:07;10.00;99.90
13591;DHT22;6866;50.778;7.206;2023-11-21T03:07:34;9.90;99.90
13591;DHT22;6866;50.778;7.206;2023-11-21T03:10:00;9.80;99.90
13591;DHT22;6866;50.778;7.206;2023-11-21T03:12:26;9.90;99.90
13591;DHT22;6866;50.778;7.206;2023-11-21T03:14:51;9.90;99.90
13591;DHT22;6866;50.778;7.206;2023-11-21T03:17:17;9.90;99.90
13591;DHT22;6866;50.778;7.206;2023-11-21T03:19:42;9.90;99.90
13591;DHT22;6866;50.778;7.206;2023-11-21T03:22:08;9.90;99.90
13591;DHT22;6866;50.778;7.206;2023-11-21T03:24:34;9.90;99.90
13591;DHT22;6866;50.778;7.206;2023-11-21T03:27:00;9.90;99.90
13591;DHT22;6866;50.778;7.206;2023-11-21T03:29:26;9.90;99.90
13591;DHT22;6866;50.778;7.206;2023-11-21T03:31:51;9.90;99.90
13591;DHT22;6866;50.778;7.206;2023-11-21T03:34:25;9.80;99.90
13591;DHT22;6866;50.778;7.206;2023-11-21T03:36:53;9.80;99.90
13591;DHT22;6866;50.778;7.206;2023-11-21T03:39:20;9.90;99.90
13591;DHT22;6866;50.778;7.206;2023-11-21T03:41:45;9.80;99.90
13591;DHT22;6866;50.778;7.206;2023-11-21T03:44:11;9.90;99.90
13591;DHT22;6866;50.778;7.206;2023-11-21T03:46:36;9.90;99.90
13591;DHT22;6866;50.778;7.206;2023-11-21T03:49:02;9.90;99.90
13591;DHT22;6866;50.778;7.206;2023-11-21T03:51:27;9.80;99.90
13591;DHT22;6866;50.778;7.206;2023-11-21T03:53:53;9.80;99.90
13591;DHT22;6866;50.778;7.206;2023-11-21T03:56:19;9.80;99.90
13591;DHT22;6866;50.778;7.206;2023-11-21T03:58:47;9.80;99.90
13591;DHT22;6866;50.778;7.206;2023-11-21T04:01:19;9.80;99.90
13591;DHT22;6866;50.778;7.206;2023-11-21T04:03:46;9.80;99.90
13591;DHT22;6866;50.778;7.206;2023-11-21T04:06:11;9.90;99.90
13591;DHT22;6866;50.778;7.206;2023-11-21T04:08:37;9.90;99.90
13591;DHT22;6866;50.778;7.206;2023-11-21T04:11:02;9.80;99.90
13591;DHT22;6866;50.778;7.206;2023-11-21T04:13:28;9.80;99.90
13591;DHT22;6866;50.778;7.206;2023-11-21T04:15:53;9.80;99.90
13591;DHT22;6866;50.778;7.206;2023-11-21T04:18:19;9.80;99.90
13591;DHT22;6866;50.778;7.206;2023-11-21T04:20:44;9.80;99.90
13591;DHT22;6866;50.778;7.206;2023-11-21T04:23:10;9.90;99.90
13591;DHT22;6866;50.778;7.206;2023-11-21T04:25:39;9.90;99.90
13591;DHT22;6866;50.778;7.206;2023-11-21T04:28:04;9.90;99.90
13591;DHT22;6866;50.778;7.206;2023-11-21T04:30:30;10.00;99.90
13591;DHT22;6866;50.778;7.206;2023-11-21T04:32:55;9.90;99.90
13591;DHT22;6866;50.778;7.206;2023-11-21T04:35:21;9.90;99.90
13591;DHT22;6866;50.778;7.206;2023-11-21T04:37:46;10.00;99.90
13591;DHT22;6866;50.778;7.206;2023-11-21T04:40:12;10.10;99.90
13591;DHT22;6866;50.778;7.206;2023-11-21T04:42:38;10.00;99.90
13591;DHT22;6866;50.778;7.206;2023-11-21T04:45:07;10.00;99.90
13591;DHT22;6866;50.778;7.206;2023-11-21T04:47:34;10.00;99.90
13591;DHT22;6866;50.778;7.206;2023-11-21T04:50:00;9.90;99.90
13591;DHT22;6866;50.778;7.206;2023-11-21T04:52:25;9.90;99.90
13591;DHT22;6866;50.778;7.206;2023-11-21T04:54:51;10.00;99.90
13591;DHT22;6866;50.778;7.206;2023-11-21T04:57:20;9.90;99.90
13591;DHT22;6866;50.778;7.206;2023-11-21T04:59:45;10.00;99.90
13591;DHT22;6866;50.778;7.206;2023-11-21T05:02:11;10.00;99.90
13591;DHT22;6866;50.778;7.206;2023-11-21T05:04:37;10.00;99.90
13591;DHT22;6866;50.778;7.206;2023-11-21T05:07:03;9.90;99.90
13591;DHT22;6866;50.778;7.206;2023-11-21T05:09:28;9.90;99.90
13591;DHT22;6866;50.778;7.206;2023-11-21T05:11:57;10.00;99.90
13591;DHT22;6866;50.778;7.206;2023-11-21T05:14:23;9.90;99.90
13591;DHT22;6866;50.778;7.206;2023-11-21T05:16:48;9.90;99.90
13591;DHT22;6866;50.778;7.206;2023-11-21T05:19:16;10.00;99.90
13591;DHT22;6866;50.778;7.206;2023-11-21T05:21:41;9.90;99.90
13591;DHT22;6866;50.778;7.206;2023-11-21T05:24:07;9.90;99.90
13591;DHT22;6866;50.778;7.206;2023-11-21T05:26:32;9.80;99.90
13591;DHT22;6866;50.778;7.206;2023-11-21T05:28:58;9.90;99.90
13591;DHT22;6866;50.778;7.206;2023-11-21T05:31:24;9.90;99.90
13591;DHT22;6866;50.778;7.206;2023-11-21T05:33:49;9.90;99.90
13591;DHT22;6866;50.778;7.206;2023-11-21T05:36:15;9.90;99.90
13591;DHT22;6866;50.778;7.206;2023-11-21T05:38:40;9.90;99.90
13591;DHT22;6866;50.778;7.206;2023-11-21T05:41:07;9.90;99.90
13591;DHT22;6866;50.778;7.206;2023-11-21T05:43:33;9.80;99.90
13591;DHT22;6866;50.778;7.206;2023-11-21T05:46:01;9.80;99.90
13591;DHT22;6866;50.778;7.206;2023-11-21T05:48:26;9.80;99.90
13591;DHT22;6866;50.778;7.206;2023-11-21T05:50:52;9.80;99.90
13591;DHT22;6866;50.778;7.206;2023-11-21T05:53:18;9.90;99.90
13591;DHT22;6866;50.778;7.206;2023-11-21T05:55:43;9.90;99.90
13591;DHT22;6866;50.778;7.206;2023-11-21T05:58:09;9.90;99.90
13591;DHT22;6866;50.778;7.206;2023-11-21T06:00:35;9.90;99.90
13591;DHT22;6866;50.778;7.206;2023-11-21T06:03:01;9.80;99.90
13591;DHT22;6866;50.778;7.206;2023-11-21T06:05:27;9.90;99.90
13591;DHT22;6866;50.778;7.206;2023-11-21T06:07:53;9.90;99.90
13591;DHT22;6866;50.778;7.206;2023-11-21T06:10:21;9.90;99.90
13591;DHT22;6866;50.778;7.206;2023-11-21T06:12:46;9.90;99.90
13591;DHT22;6866;50.778;7.206;2023-11-21T06:15:13;9.80;99.90
13591;DHT22;6866;50.778;7.206;2023-11-21T06:17:42;9.90;99.90
13591;DHT22;6866;50.778;7.206;2023-11-21T06:20:09;9.80;99.90
13591;DHT22;6866;50.778;7.206;2023-11-21T06:22:37;9.80;99.90
13591;DHT22;6866;50.778;7.206;2023-11-21T06:25:03;9.90;99.90
13591;DHT22;6866;50.778;7.206;2023-11-21T06:27:31;9.90;99.90
13591;DHT22;6866;50.778;7.206;2023-11-21T06:29:57;9.80;99.90
13591;DHT22;6866;50.778;7.206;2023-11-21T06:32:22;9.80;99.90
13591;DHT22;6866;50.778;7.206;2023-11-21T06:34:48;9.80;99.90
13591;DHT22;6866;50.778;7.206;2023-11-21T06:37:15;9.80;99.90
13591;DHT22;6866;50.778;7.206;2023-11-21T06:39:40;9.70;99.90
13591;DHT22;6866;50.778;7.206;2023-11-21T06:42:06;9.70;99.90
13591;DHT22;6866;50.778;7.206;2023-11-21T06:44:32;9.80;99.90
13591;DHT22;6866;50.778;7.206;2023-11-21T06:46:58;9.80;99.90
13591;DHT22;6866;50.778;7.206;2023-11-21T06:49:24;9.80;99.90
13591;DHT22;6866;50.778;7.206;2023-11-21T06:51:51;9.80;99.90
13591;DHT22;6866;50.778;7.206;2023-11-21T06:54:16;9.80;99.90
13591;DHT22;6866;50.778;7.206;2023-11-21T06:56:42;9.90;99.90
13591;DHT22;6866;50.778;7.206;2023-11-21T06:59:07;9.90;99.90
13591;DHT22;6866;50.778;7.206;2023-11-21T07:01:34;9.90;99.90
13591;DHT22;6866;50.778;7.206;2023-11-21T07:04:05;9.90;99.90
13591;DHT22;6866;50.778;7.206;2023-11-21T07:06:31;9.90;99.90
13591;DHT22;6866;50.778;7.206;2023-11-21T07:08:57;10.00;99.90
13591;DHT22;6866;50.778;7.206;2023-11-21T07:11:22;10.00;99.90
13591;DHT22;6866;50.778;7.206;2023-11-21T07:13:48;10.00;99.90
13591;DHT22;6866;50.778;7.206;2023-11-21T07:16:13;9.90;99.90
13591;DHT22;6866;50.778;7.206;2023-11-21T07:18:40;9.90;99.90
13591;DHT22;6866;50.778;7.206;2023-11-21T07:21:06;9.90;99.90
13591;DHT22;6866;50.778;7.206;2023-11-21T07:23:32;10.00;99.90
13591;DHT22;6866;50.778;7.206;2023-11-21T07:25:58;10.00;99.90
13591;DHT22;6866;50.778;7.206;2023-11-21T07:28:24;10.00;99.90
13591;DHT22;6866;50.778;7.206;2023-11-21T07:30:51;10.00;99.90
13591;DHT22;6866;50.778;7.206;2023-11-21T07:33:16;10.00;99.90
13591;DHT22;6866;50.778;7.206;2023-11-21T07:35:43;10.00;99.90
13591;DHT22;6866;50.778;7.206;2023-11-21T07:38:08;10.00;99.90
13591;DHT22;6866;50.778;7.206;2023-11-21T07:40:34;10.00;99.90
13591;DHT22;6866;50.778;7.206;2023-11-21T07:42:59;10.00;99.90
13591;DHT22;6866;50.778;7.206;2023-11-21T07:45:25;9.90;99.90
13591;DHT22;6866;50.778;7.206;2023-11-21T07:47:53;10.00;99.90
13591;DHT22;6866;50.778;7.206;2023-11-21T07:50:19;10.00;99.90
13591;DHT22;6866;50.778;7.206;2023-11-21T07:52:45;10.00;99.90
13591;DHT22;6866;50.778;7.206;2023-11-21T07:55:11;10.00;99.90
13591;DHT22;6866;50.778;7.206;2023-11-21T07:57:37;10.10;99.90
13591;DHT22;6866;50.778;7.206;2023-11-21T08:00:04;10.10;99.90
13591;DHT22;6866;50.778;7.206;2023-11-21T08:02:32;10.10;99.90
13591;DHT22;6866;50.778;7.206;2023-11-21T08:04:57;10.10;99.90
13591;DHT22;6866;50.778;7.206;2023-11-21T08:07:23;10.20;99.90
13591;DHT22;6866;50.778;7.206;2023-11-21T08:09:48;10.20;99.90
13591;DHT22;6866;50.778;7.206;2023-11-21T08:12:15;10.20;99.90
13591;DHT22;6866;50.778;7.206;2023-11-21T08:14:41;10.20;99.90
13591;DHT22;6866;50.778;7.206;2023-11-21T08:17:06;10.30;99.90
13591;DHT22;6866;50.778;7.206;2023-11-21T08:19:32;10.30;99.90
13591;DHT22;6866;50.778;7.206;2023-11-21T08:21:58;10.20;99.90
13591;DHT22;6866;50.778;7.206;2023-11-21T08:24:24;10.20;99.90
13591;DHT22;6866;50.778;7.206;2023-11-21T08:26:50;10.30;99.90
13591;DHT22;6866;50.778;7.206;2023-11-21T08:29:17;10.40;99.90
13591;DHT22;6866;50.778;7.206;2023-11-21T08:31:43;10.40;99.90
13591;DHT22;6866;50.778;7.206;2023-11-21T08:34:12;10.40;99.90
13591;DHT22;6866;50.778;7.206;2023-11-21T08:36:42;10.40;99.90
13591;DHT22;6866;50.778;7.206;2023-11-21T08:39:08;10.40;99.90
13591;DHT22;6866;50.778;7.206;2023-11-21T08:41:35;10.40;99.90
13591;DHT22;6866;50.778;7.206;2023-11-21T08:44:02;10.40;99.90
13591;DHT22;6866;50.778;7.206;2023-11-21T08:46:32;10.40;99.90
13591;DHT22;6866;50.778;7.206;2023-11-21T08:49:00;10.50;99.90
13591;DHT22;6866;50.778;7.206;2023-11-21T08:51:26;10.50;99.90
13591;DHT22;6866;50.778;7.206;2023-11-21T08:53:52;10.50;99.90
13591;DHT22;6866;50.778;7.206;2023-11-21T08:56:18;10.60;99.90
13591;DHT22;6866;50.778;7.206;2023-11-21T08:58:45;10.60;99.90
13591;DHT22;6866;50.778;7.206;2023-11-21T09:01:12;10.70;99.90
13591;DHT22;6866;50.778;7.206;2023-11-21T09:03:38;10.70;99.90
13591;DHT22;6866;50.778;7.206;2023-11-21T09:06:03;10.70;99.90
13591;DHT22;6866;50.778;7.206;2023-11-21T09:08:29;10.70;99.90
13591;DHT22;6866;50.778;7.206;2023-11-21T09:10:55;10.60;99.90
13591;DHT22;6866;50.778;7.206;2023-11-21T09:13:21;10.60;99.90
13591;DHT22;6866;50.778;7.206;2023-11-21T09:15:46;10.70;99.90
13591;DHT22;6866;50.778;7.206;2023-11-21T09:18:15;10.70;99.90
13591;DHT22;6866;50.778;7.206;2023-11-21T09:20:41;10.80;99.90
13591;DHT22;6866;50.778;7.206;2023-11-21T09:23:09;10.80;99.90
13591;DHT22;6866;50.778;7.206;2023-11-21T09:25:35;10.90;99.90
13591;DHT22;6866;50.778;7.206;2023-11-21T09:28:05;10.90;99.90
13591;DHT22;6866;50.778;7.206;2023-11-21T09:30:35;10.80;99.90
13591;DHT22;6866;50.778;7.206;2023-11-21T09:33:01;10.80;99.90
13591;DHT22;6866;50.778;7.206;2023-11-21T09:35:27;10.80;99.90
13591;DHT22;6866;50.778;7.206;2023-11-21T09:37:53;10.90;99.90
13591;DHT22;6866;50.778;7.206;2023-11-21T09:40:21;11.00;99.90
13591;DHT22;6866;50.778;7.206;2023-11-21T09:42:55;11.00;99.90
13591;DHT22;6866;50.778;7.206;2023-11-21T09:45:26;11.00;99.90
13591;DHT22;6866;50.778;7.206;2023-11-21T09:47:56;11.00;99.90
13591;DHT22;6866;50.778;7.206;2023-11-21T09:50:22;11.00;99.90
13591;DHT22;6866;50.778;7.206;2023-11-21T09:53:18;11.00;99.90
13591;DHT22;6866;50.778;7.206;2023-11-21T09:55:48;10.80;99.90
13591;DHT22;6866;50.778;7.206;2023-11-21T09:58:14;10.80;99.90
13591;DHT22;6866;50.778;7.206;2023-11-21T10:00:41;10.80;99.90
13591;DHT22;6866;50.778;7.206;2023-11-21T10:03:07;10.80;99.90
13591;DHT22;6866;50.778;7.206;2023-11-21T10:05:34;10.80;99.90
13591;DHT22;6866;50.778;7.206;2023-11-21T10:08:00;10.80;99.90
13591;DHT22;6866;50.778;7.206;2023-11-21T10:10:27;10.90;99.90
13591;DHT22;6866;50.778;7.206;2023-11-21T10:12:59;10.90;99.90
13591;DHT22;6866;50.778;7.206;2023-11-21T10:15:28;10.90;99.90
13591;DHT22;6866;50.778;7.206;2023-11-21T10:17:56;10.90;99.90
13591;DHT22;6866;50.778;7.206;2023-11-21T10:20:23;11.00;99.90
13591;DHT22;6866;50.778;7.206;2023-11-21T10:22:49;11.00;99.90
13591;DHT22;6866;50.778;7.206;2023-11-21T10:25:15;11.00;99.90
13591;DHT22;6866;50.778;7.206;2023-11-21T10:27:42;11.10;99.90
13591;DHT22;6866;50.778;7.206;2023-11-21T10:30:09;11.10;99.90
13591;DHT22;6866;50.778;7.206;2023-11-21T10:32:41;11.10;99.90
13591;DHT22;6866;50.778;7.206;2023-11-21T10:35:10;11.10;99.90
13591;DHT22;6866;50.778;7.206;2023-11-21T10:37:39;11.10;99.90
13591;DHT22;6866;50.778;7.206;2023-11-21T10:40:11;11.20;99.90
13591;DHT22;6866;50.778;7.206;2023-11-21T10:42:41;11.20;99.90
13591;DHT22;6866;50.778;7.206;2023-11-21T10:45:08;11.20;99.90
13591;DHT22;6866;50.778;7.206;2023-11-21T10:47:41;11.30;99.90
13591;DHT22;6866;50.778;7.206;2023-11-21T10:50:07;11.30;99.90
13591;DHT22;6866;50.778;7.206;2023-11-21T10:52:39;11.40;99.90
13591;DHT22;6866;50.778;7.206;2023-11-21T10:55:18;11.50;99.90
13591;DHT22;6866;50.778;7.206;2023-11-21T10:57:48;11.50;99.90
13591;DHT22;6866;50.778;7.206;2023-11-21T11:00:16;11.40;99.90
13591;DHT22;6866;50.778;7.206;2023-11-21T11:02:44;11.40;99.90
13591;DHT22;6866;50.778;7.206;2023-11-21T11:05:13;11.40;99.90
13591;DHT22;6866;50.778;7.206;2023-11-21T11:07:41;11.50;99.90
13591;DHT22;6866;50.778;7.206;2023-11-21T11:10:09;11.50;99.90
13591;DHT22;6866;50.778;7.206;2023-11-21T11:12:40;11.40;99.90
13591;DHT22;6866;50.778;7.206;2023-11-21T11:15:07;11.40;99.90
13591;DHT22;6866;50.778;7.206;2023-11-21T11:17:36;11.40;99.90
13591;DHT22;6866;50.778;7.206;2023-11-21T11:20:04;11.40;99.90
13591;DHT22;6866;50.778;7.206;2023-11-21T11:22:47;11.50;99.90
13591;DHT22;6866;50.778;7.206;2023-11-21T11:25:57;11.50;99.90
13591;DHT22;6866;50.778;7.206;2023-11-21T11:28:58;11.50;99.90
13591;DHT22;6866;50.778;7.206;2023-11-21T11:33:58;11.50;99.90
13591;DHT22;6866;50.778;7.206;2023-11-21T11:36:42;11.60;99.90
13591;DHT22;6866;50.778;7.206;2023-11-21T11:39:28;11.50;99.90
13591;DHT22;6866;50.778;7.206;2023-11-21T11:41:56;11.50;99.90
13591;DHT22;6866;50.778;7.206;2023-11-21T11:47:29;11.50;99.90
13591;DHT22;6866;50.778;7.206;2023-11-21T11:50:07;11.50;99.90
13591;DHT22;6866;50.778;7.206;2023-11-21T11:52:44;11.40;99.90
13591;DHT22;6866;50.778;7.206;2023-11-21T11:55:15;11.40;99.90
13591;DHT22;6866;50.778;7.206;2023-11-21T11:57:44;11.30;99.90
13591;DHT22;6866;50.778;7.206;2023-11-21T12:02:51;11.40;99.90
13591;DHT22;6866;50.778;7.206;2023-11-21T12:05:21;11.50;99.90
13591;DHT22;6866;50.778;7.206;2023-11-21T12:07:53;11.60;99.90
13591;DHT22;6866;50.778;7.206;2023-11-21T12:10:27;11.70;99.90
13591;DHT22;6866;50.778;7.206;2023-11-21T12:15:22;11.70;99.90
13591;DHT22;6866;50.778;7.206;2023-11-21T12:17:49;11.80;99.90
13591;DHT22;6866;50.778;7.206;2023-11-21T12:20:18;11.60;99.90
13591;DHT22;6866;50.778;7.206;2023-11-21T12:22:51;11.70;99.90
13591;DHT22;6866;50.778;7.206;2023-11-21T12:25:18;11.80;99.90
13591;DHT22;6866;50.778;7.206;2023-11-21T12:27:51;11.80;99.90
13591;DHT22;6866;50.778;7.206;2023-11-21T12:30:18;11.80;99.90
13591;DHT22;6866;50.778;7.206;2023-11-21T12:32:44;11.90;99.90
13591;DHT22;6866;50.778;7.206;2023-11-21T12:35:13;11.90;99.90
13591;DHT22;6866;50.778;7.206;2023-11-21T12:37:40;11.90;99.90
13591;DHT22;6866;50.778;7.206;2023-11-21T12:40:07;11.90;99.90
13591;DHT22;6866;50.778;7.206;2023-11-21T12:42:48;11.90;99.90
13591;DHT22;6866;50.778;7.206;2023-11-21T12:47:56;11.90;99.90
13591;DHT22;6866;50.778;7.206;2023-11-21T12:50:25;11.90;99.90
13591;DHT22;6866;50.778;7.206;2023-11-21T12:52:57;12.00;99.90
13591;DHT22;6866;50.778;7.206;2023-11-21T12:55:24;11.90;99.90
13591;DHT22;6866;50.778;7.206;2023-11-21T12:57:52;12.00;99.90
13591;DHT22;6866;50.778;7.206;2023-11-21T13:00:27;12.10;99.90
13591;DHT22;6866;50.778;7.206;2023-11-21T13:02:56;12.00;99.90
13591;DHT22;6866;50.778;7.206;2023-11-21T13:05:25;12.00;99.90
13591;DHT22;6866;50.778;7.206;2023-11-21T13:07:51;12.00;99.90
13591;DHT22;6866;50.778;7.206;2023-11-21T13:10:22;12.00;99.90
13591;DHT22;6866;50.778;7.206;2023-11-21T13:12:51;12.10;99.90
13591;DHT22;6866;50.778;7.206;2023-11-21T13:15:17;12.00;99.90
13591;DHT22;6866;50.778;7.206;2023-11-21T13:17:46;12.10;99.90
13591;DHT22;6866;50.778;7.206;2023-11-21T13:20:12;12.10;99.90
13591;DHT22;6866;50.778;7.206;2023-11-21T13:22:51;12.10;99.90
13591;DHT22;6866;50.778;7.206;2023-11-21T13:25:23;12.10;99.90
13591;DHT22;6866;50.778;7.206;2023-11-21T13:27:49;12.20;99.90
13591;DHT22;6866;50.778;7.206;2023-11-21T13:30:15;12.20;99.90
13591;DHT22;6866;50.778;7.206;2023-11-21T13:32:45;12.10;99.90
13591;DHT22;6866;50.778;7.206;2023-11-21T13:35:19;12.00;99.90
13591;DHT22;6866;50.778;7.206;2023-11-21T13:37:56;11.90;99.90
13591;DHT22;6866;50.778;7.206;2023-11-21T13:40:26;11.90;99.90
13591;DHT22;6866;50.778;7.206;2023-11-21T13:42:53;11.80;99.90
13591;DHT22;6866;50.778;7.206;2023-11-21T13:45:20;11.80;99.90
13591;DHT22;6866;50.778;7.206;2023-11-21T13:47:47;11.70;99.90
13591;DHT22;6866;50.778;7.206;2023-11-21T13:50:12;11.80;99.90
13591;DHT22;6866;50.778;7.206;2023-11-21T13:52:42;11.70;99.90
13591;DHT22;6866;50.778;7.206;2023-11-21T13:55:10;11.70;99.90
13591;DHT22;6866;50.778;7.206;2023-11-21T13:57:41;11.70;99.90
13591;DHT22;6866;50.778;7.206;2023-11-21T14:00:10;11.70;99.90
13591;DHT22;6866;50.778;7.206;2023-11-21T14:02:56;11.70;99.90
13591;DHT22;6866;50.778;7.206;2023-11-21T14:05:26;11.70;99.90
13591;DHT22;6866;50.778;7.206;2023-11-21T14:07:55;11.60;99.90
13591;DHT22;6866;50.778;7.206;2023-11-21T14:10:22;11.60;99.90
13591;DHT22;6866;50.778;7.206;2023-11-21T14:12:50;11.60;99.90
13591;DHT22;6866;50.778;7.206;2023-11-21T14:15:15;11.50;99.90
13591;DHT22;6866;50.778;7.206;2023-11-21T14:17:44;11.60;99.90
13591;DHT22;6866;50.778;7.206;2023-11-21T14:20:10;11.60;99.90
13591;DHT22;6866;50.778;7.206;2023-11-21T14:22:41;11.70;99.90
13591;DHT22;6866;50.778;7.206;2023-11-21T14:25:07;11.70;99.90
13591;DHT22;6866;50.778;7.206;2023-11-21T14:27:33;11.70;99.90
13591;DHT22;6866;50.778;7.206;2023-11-21T14:29:59;11.60;99.90
13591;DHT22;6866;50.778;7.206;2023-11-21T14:32:25;11.60;99.90
13591;DHT22;6866;50.778;7.206;2023-11-21T14:34:51;11.60;99.90
13591;DHT22;6866;50.778;7.206;2023-11-21T14:37:17;11.60;99.90
13591;DHT22;6866;50.778;7.206;2023-11-21T14:39:43;11.50;99.90
13591;DHT22;6866;50.778;7.206;2023-11-21T14:42:13;11.50;99.90
13591;DHT22;6866;50.778;7.206;2023-11-21T14:44:40;11.40;99.90
13591;DHT22;6866;50.778;7.206;2023-11-21T14:47:07;11.40;99.90
13591;DHT22;6866;50.778;7.206;2023-11-21T14:49:41;11.40;99.90
13591;DHT22;6866;50.778;7.206;2023-11-21T14:52:18;11.40;99.90
13591;DHT22;6866;50.778;7.206;2023-11-21T14:55:04;11.40;99.90
13591;DHT22;6866;50.778;7.206;2023-11-21T14:57:45;11.40;99.90
13591;DHT22;6866;50.778;7.206;2023-11-21T15:00:16;11.30;99.90
13591;DHT22;6866;50.778;7.206;2023-11-21T15:03:02;11.30;99.90
13591;DHT22;6866;50.778;7.206;2023-11-21T15:05:28;11.30;99.90
13591;DHT22;6866;50.778;7.206;2023-11-21T15:07:55;11.30;99.90
13591;DHT22;6866;50.778;7.206;2023-11-21T15:10:24;11.30;99.90
13591;DHT22;6866;50.778;7.206;2023-11-21T15:13:09;11.40;99.90
13591;DHT22;6866;50.778;7.206;2023-11-21T15:15:36;11.30;99.90
13591;DHT22;6866;50.778;7.206;2023-11-21T15:18:02;11.40;99.90
13591;DHT22;6866;50.778;7.206;2023-11-21T15:20:28;11.30;99.90
13591;DHT22;6866;50.778;7.206;2023-11-21T15:22:54;11.30;99.90
13591;DHT22;6866;50.778;7.206;2023-11-21T15:25:20;11.30;99.90
13591;DHT22;6866;50.778;7.206;2023-11-21T15:27:45;11.40;99.90
13591;DHT22;6866;50.778;7.206;2023-11-21T15:30:14;11.30;99.90
13591;DHT22;6866;50.778;7.206;2023-11-21T15:32:41;11.30;99.90
13591;DHT22;6866;50.778;7.206;2023-11-21T15:35:07;11.20;99.90
13591;DHT22;6866;50.778;7.206;2023-11-21T15:37:36;11.20;99.90
13591;DHT22;6866;50.778;7.206;2023-11-21T15:40:01;11.20;99.90
13591;DHT22;6866;50.778;7.206;2023-11-21T15:42:31;11.20;99.90
13591;DHT22;6866;50.778;7.206;2023-11-21T15:44:57;11.30;99.90
13591;DHT22;6866;50.778;7.206;2023-11-21T15:47:22;11.20;99.90
13591;DHT22;6866;50.778;7.206;2023-11-21T15:49:48;11.20;99.90
13591;DHT22;6866;50.778;7.206;2023-11-21T15:52:14;11.20;99.90
13591;DHT22;6866;50.778;7.206;2023-11-21T15:54:40;11.10;99.90
13591;DHT22;6866;50.778;7.206;2023-11-21T15:57:05;11.20;99.90
13591;DHT22;6866;50.778;7.206;2023-11-21T15:59:33;11.20;99.90
13591;DHT22;6866;50.778;7.206;2023-11-21T16:01:59;11.10;99.90
13591;DHT22;6866;50.778;7.206;2023-11-21T16:04:25;11.10;99.90
13591;DHT22;6866;50.778;7.206;2023-11-21T16:06:53;11.10;99.90
13591;DHT22;6866;50.778;7.206;2023-11-21T16:09:19;11.10;99.90